createdAt,value
2018-09-18T00:02:05.569Z,1.77
2018-09-18T00:04:34.360Z,1.30
2018-09-18T00:07:03.066Z,1.73
2018-09-18T00:09:32.016Z,1.10
2018-09-18T00:12:00.848Z,1.53
2018-09-18T00:14:29.474Z,1.70
2018-09-18T00:16:58.363Z,1.33
2018-09-18T00:19:26.922Z,1.40
2018-09-18T00:21:55.547Z,1.43
2018-09-18T00:24:24.336Z,1.80
2018-09-18T00:26:52.862Z,1.70
2018-09-18T00:29:21.334Z,3.03
2018-09-18T00:31:50.188Z,2.07
2018-09-18T00:34:18.622Z,2.00
2018-09-18T00:36:47.111Z,1.73
2018-09-18T00:39:15.649Z,1.80
2018-09-18T00:41:44.087Z,2.07
2018-09-18T00:44:12.563Z,1.80
2018-09-18T00:46:41.843Z,1.73
2018-09-18T00:49:10.281Z,1.30
2018-09-18T00:51:39.785Z,1.10
2018-09-18T00:54:08.969Z,1.30
2018-09-18T00:56:37.710Z,1.43
2018-09-18T00:59:06.175Z,1.43
2018-09-18T01:01:34.721Z,1.63
2018-09-18T01:04:03.204Z,1.20
2018-09-18T01:06:32.320Z,1.80
2018-09-18T01:09:01.069Z,2.57
2018-09-18T01:11:29.784Z,1.70
2018-09-18T01:13:58.684Z,1.40
2018-09-18T01:16:27.360Z,1.90
2018-09-18T01:18:55.861Z,2.10
2018-09-18T01:21:24.378Z,2.17
2018-09-18T01:23:53.094Z,2.00
2018-09-18T01:26:21.653Z,1.57
2018-09-18T01:28:50.152Z,2.30
2018-09-18T01:31:18.659Z,1.50
2018-09-18T01:33:47.358Z,1.70
2018-09-18T01:36:15.923Z,1.70
2018-09-18T01:38:44.665Z,1.93
2018-09-18T01:41:13.105Z,1.80
2018-09-18T01:43:41.625Z,1.87
2018-09-18T01:46:10.350Z,1.70
2018-09-18T01:48:39.042Z,1.50
2018-09-18T01:51:07.863Z,2.30
2018-09-18T01:53:36.793Z,1.60
2018-09-18T01:56:05.529Z,1.93
2018-09-18T01:58:33.984Z,1.50
2018-09-18T02:01:02.765Z,1.60
2018-09-18T02:03:31.278Z,1.80
2018-09-18T02:05:59.760Z,1.30
2018-09-18T02:08:28.566Z,1.67
2018-09-18T02:10:57.070Z,1.30
2018-09-18T02:13:25.531Z,1.90
2018-09-18T02:15:54.861Z,1.40
2018-09-18T02:18:23.401Z,1.93
2018-09-18T02:20:51.857Z,1.50
2018-09-18T02:23:20.718Z,1.60
2018-09-18T02:25:49.158Z,1.27
2018-09-18T02:28:17.725Z,1.77
2018-09-18T02:30:46.466Z,1.77
2018-09-18T02:33:14.895Z,2.30
2018-09-18T02:35:43.358Z,1.43
2018-09-18T02:38:11.917Z,1.40
2018-09-18T02:40:40.381Z,1.40
2018-09-18T02:43:08.857Z,1.50
2018-09-18T02:45:38.269Z,1.63
2018-09-18T02:48:06.743Z,1.43
2018-09-18T02:50:35.370Z,1.63
2018-09-18T02:53:04.221Z,1.50
2018-09-18T02:55:32.702Z,1.80
2018-09-18T02:58:01.235Z,1.60
2018-09-18T03:00:30.596Z,1.33
2018-09-18T03:02:59.081Z,1.60
2018-09-18T03:05:27.553Z,2.03
2018-09-18T03:07:56.113Z,1.87
2018-09-18T03:10:24.566Z,1.37
2018-09-18T03:12:53.117Z,1.67
2018-09-18T03:15:21.738Z,1.70
2018-09-18T03:17:50.306Z,1.60
2018-09-18T03:20:18.773Z,1.87
2018-09-18T03:22:47.378Z,1.73
2018-09-18T03:25:16.050Z,2.10
2018-09-18T03:27:44.517Z,2.10
2018-09-18T03:30:13.290Z,1.60
2018-09-18T03:32:41.842Z,1.53
2018-09-18T03:35:10.398Z,2.30
2018-09-18T03:37:39.133Z,1.57
2018-09-18T03:40:08.221Z,2.20
2018-09-18T03:42:36.702Z,1.77
2018-09-18T03:45:05.534Z,1.60
2018-09-18T03:47:33.969Z,1.93
2018-09-18T03:50:02.475Z,2.03
2018-09-18T03:52:31.469Z,1.70
2018-09-18T03:54:59.965Z,1.80
2018-09-18T03:57:28.454Z,1.90
2018-09-18T03:59:57.198Z,1.87
2018-09-18T04:02:25.647Z,1.20
2018-09-18T04:04:54.141Z,1.63
2018-09-18T04:07:22.946Z,1.57
2018-09-18T04:09:51.467Z,1.50
2018-09-18T04:12:19.927Z,1.90
2018-09-18T04:14:48.705Z,1.70
2018-09-18T04:17:17.149Z,1.80
2018-09-18T04:19:46.040Z,2.00
2018-09-18T04:22:14.849Z,2.03
2018-09-18T04:24:43.294Z,1.80
2018-09-18T04:27:11.761Z,2.10
2018-09-18T04:29:40.510Z,1.90
2018-09-18T04:32:09.013Z,2.47
2018-09-18T04:34:37.758Z,2.50
2018-09-18T04:37:07.440Z,2.57
2018-09-18T04:39:42.333Z,1.60
2018-09-18T04:42:14.018Z,1.80
2018-09-18T04:44:42.481Z,2.17
2018-09-18T04:47:11.144Z,2.40
2018-09-18T04:49:39.681Z,2.10
2018-09-18T04:52:08.940Z,1.40
2018-09-18T04:54:38.066Z,2.67
2018-09-18T04:57:06.949Z,2.17
2018-09-18T04:59:38.273Z,2.13
2018-09-18T05:02:06.970Z,2.27
2018-09-18T05:04:35.521Z,1.77
2018-09-18T05:07:03.952Z,1.90
2018-09-18T05:09:32.390Z,1.90
2018-09-18T05:12:01.165Z,2.20
2018-09-18T05:14:29.581Z,2.07
2018-09-18T05:16:58.002Z,1.80
2018-09-18T05:19:26.873Z,2.20
2018-09-18T05:21:55.692Z,1.80
2018-09-18T05:24:24.129Z,1.90
2018-09-18T05:26:52.685Z,1.67
2018-09-18T05:29:21.155Z,2.07
2018-09-18T05:31:49.611Z,2.00
2018-09-18T05:34:18.333Z,2.33
2018-09-18T05:36:46.773Z,2.00
2018-09-18T05:39:15.310Z,2.30
2018-09-18T05:41:43.845Z,2.10
2018-09-18T05:44:12.282Z,2.10
2018-09-18T05:46:40.725Z,2.50
2018-09-18T05:49:09.517Z,1.67
2018-09-18T05:51:38.095Z,1.90
2018-09-18T05:54:06.583Z,2.07
2018-09-18T05:56:35.517Z,2.10
2018-09-18T05:59:03.999Z,2.30
2018-09-18T06:01:32.453Z,2.10
2018-09-18T06:04:02.058Z,2.40
2018-09-18T06:06:30.817Z,2.20
2018-09-18T06:08:59.237Z,1.87
2018-09-18T06:11:28.021Z,2.00
2018-09-18T06:13:57.005Z,2.10
2018-09-18T06:16:25.497Z,2.53
2018-09-18T06:18:54.171Z,2.13
2018-09-18T06:21:22.629Z,2.50
2018-09-18T06:23:51.290Z,2.30
2018-09-18T06:26:20.237Z,2.43
2018-09-18T06:28:48.920Z,2.00
2018-09-18T06:31:17.597Z,2.10
2018-09-18T06:33:46.258Z,2.07
2018-09-18T06:36:14.694Z,2.00
2018-09-18T06:38:43.159Z,2.40
2018-09-18T06:41:11.734Z,1.50
2018-09-18T06:43:40.182Z,2.37
2018-09-18T06:46:09.485Z,2.00
2018-09-18T06:48:38.091Z,1.90
2018-09-18T06:51:06.687Z,1.83
2018-09-18T06:53:35.660Z,1.90
2018-09-18T06:56:04.321Z,2.40
2018-09-18T06:58:32.833Z,1.80
2018-09-18T07:01:02.563Z,2.60
2018-09-18T07:03:31.313Z,2.37
2018-09-18T07:06:06.137Z,1.77
2018-09-18T07:08:34.725Z,2.77
2018-09-18T07:11:03.885Z,2.00
2018-09-18T07:13:32.337Z,2.30
2018-09-18T07:16:01.477Z,2.00
2018-09-18T07:18:29.946Z,2.23
2018-09-18T07:20:58.411Z,1.40
2018-09-18T07:23:27.593Z,2.07
2018-09-18T07:25:56.165Z,1.80
2018-09-18T07:28:24.650Z,2.00
2018-09-18T07:30:53.301Z,1.90
2018-09-18T07:33:21.807Z,1.70
2018-09-18T07:35:50.254Z,1.93
2018-09-18T07:38:19.054Z,1.60
2018-09-18T07:40:47.549Z,1.93
2018-09-18T07:43:17.173Z,2.10
2018-09-18T07:45:46.053Z,2.73
2018-09-18T07:48:14.915Z,2.53
2018-09-18T07:50:43.354Z,2.30
2018-09-18T07:53:12.114Z,3.00
2018-09-18T07:55:40.845Z,2.67
2018-09-18T07:58:09.313Z,2.47
2018-09-18T08:00:38.990Z,2.70
2018-09-18T08:03:07.765Z,2.33
2018-09-18T08:05:36.736Z,1.97
2018-09-18T08:08:05.421Z,2.20
2018-09-18T08:10:34.429Z,2.37
2018-09-18T08:13:02.886Z,2.30
2018-09-18T08:15:31.500Z,2.77
2018-09-18T08:17:59.974Z,2.80
2018-09-18T08:20:28.402Z,2.30
2018-09-18T08:22:57.271Z,2.70
2018-09-18T08:25:26.113Z,3.77
2018-09-18T08:27:54.643Z,2.50
2018-09-18T08:30:23.345Z,3.07
2018-09-18T08:32:51.850Z,3.03
2018-09-18T08:35:20.308Z,2.47
2018-09-18T08:37:49.049Z,2.50
2018-09-18T08:40:17.766Z,2.50
2018-09-18T08:42:46.190Z,2.50
2018-09-18T08:45:14.721Z,2.53
2018-09-18T08:47:43.296Z,2.77
2018-09-18T08:50:11.775Z,2.33
2018-09-18T08:52:40.778Z,1.82
2018-09-18T08:55:09.235Z,3.33
2018-09-18T08:57:38.404Z,2.50
2018-09-18T09:00:07.666Z,2.60
2018-09-18T09:02:36.258Z,2.65
2018-09-18T09:05:05.278Z,2.45
2018-09-18T09:07:33.955Z,3.05
2018-09-18T09:10:02.495Z,3.25
2018-09-18T09:12:31.073Z,2.55
2018-09-18T09:14:59.961Z,3.20
2018-09-18T09:17:28.315Z,3.00
2018-09-18T09:19:56.774Z,2.50
2018-09-18T09:22:25.719Z,3.15
2018-09-18T09:24:54.060Z,3.33
2018-09-18T09:27:22.489Z,2.83
2018-09-18T09:29:51.752Z,2.85
2018-09-18T09:32:20.205Z,3.20
2018-09-18T09:34:49.626Z,3.12
2018-09-18T09:37:18.575Z,2.52
2018-09-18T09:39:47.175Z,2.58
2018-09-18T09:42:15.656Z,2.80
2018-09-18T09:44:44.435Z,2.80
2018-09-18T09:47:13.167Z,2.98
2018-09-18T09:49:41.623Z,2.50
2018-09-18T09:52:10.158Z,2.52
2018-09-18T09:54:38.544Z,2.30
2018-09-18T09:57:07.227Z,2.72
2018-09-18T09:59:36.131Z,2.27
2018-09-18T10:02:09.774Z,2.58
2018-09-18T10:04:39.314Z,2.72
2018-09-18T10:07:08.800Z,2.40
2018-09-18T10:09:37.447Z,2.77
2018-09-18T10:12:06.122Z,2.37
2018-09-18T10:14:34.587Z,2.85
2018-09-18T10:17:03.481Z,2.50
2018-09-18T10:19:32.476Z,2.30
2018-09-18T10:22:00.859Z,2.90
2018-09-18T10:24:29.269Z,2.55
2018-09-18T10:26:58.067Z,2.87
2018-09-18T10:29:26.316Z,2.67
2018-09-18T10:31:55.141Z,2.92
2018-09-18T10:34:23.787Z,3.05
2018-09-18T10:36:52.683Z,2.67
2018-09-18T10:39:21.122Z,2.90
2018-09-18T10:41:49.813Z,2.95
2018-09-18T10:44:18.214Z,3.05
2018-09-18T10:46:46.941Z,2.58
2018-09-18T10:49:15.468Z,2.95
2018-09-18T10:51:43.955Z,2.75
2018-09-18T10:54:12.356Z,2.98
2018-09-18T10:56:41.230Z,2.60
2018-09-18T10:59:10.275Z,2.75
2018-09-18T11:01:38.671Z,2.95
2018-09-18T11:04:07.620Z,2.87
2018-09-18T11:06:36.025Z,2.70
2018-09-18T11:09:06.318Z,2.85
2018-09-18T11:11:35.253Z,2.75
2018-09-18T11:14:03.707Z,2.55
2018-09-18T11:16:32.094Z,3.02
2018-09-18T11:19:01.256Z,3.22
2018-09-18T11:21:30.059Z,2.30
2018-09-18T11:23:58.397Z,2.83
2018-09-18T11:26:27.319Z,2.85
2018-09-18T11:28:55.749Z,2.58
2018-09-18T11:31:24.161Z,2.55
2018-09-18T11:33:53.369Z,2.65
2018-09-18T11:36:21.764Z,2.55
2018-09-18T11:38:50.146Z,2.75
2018-09-18T11:41:19.087Z,2.60
2018-09-18T11:43:47.801Z,2.92
2018-09-18T11:46:16.219Z,2.58
2018-09-18T11:48:44.986Z,2.35
2018-09-18T11:51:13.399Z,2.50
2018-09-18T11:53:41.799Z,2.35
2018-09-18T11:56:11.514Z,2.62
2018-09-18T11:58:40.363Z,2.20
2018-09-18T12:01:08.742Z,2.90
2018-09-18T12:03:37.617Z,2.70
2018-09-18T12:06:06.663Z,2.40
2018-09-18T12:08:35.098Z,2.37
2018-09-18T12:11:03.935Z,2.60
2018-09-18T12:13:32.326Z,2.70
2018-09-18T12:16:00.724Z,2.52
2018-09-18T12:18:29.560Z,2.47
2018-09-18T12:20:58.319Z,2.33
2018-09-18T12:23:27.270Z,2.35
2018-09-18T12:25:56.144Z,2.60
2018-09-18T12:28:24.801Z,2.45
2018-09-18T12:30:53.190Z,2.65
2018-09-18T12:33:22.106Z,2.25
2018-09-18T12:35:50.844Z,2.22
2018-09-18T12:38:19.157Z,2.22
2018-09-18T12:40:47.838Z,2.50
2018-09-18T12:43:16.218Z,2.22
2018-09-18T12:45:44.606Z,2.45
2018-09-18T12:48:13.279Z,2.50
2018-09-18T12:50:41.878Z,2.30
2018-09-18T12:53:11.299Z,2.60
2018-09-18T12:55:39.908Z,2.25
2018-09-18T12:58:09.400Z,2.45
2018-09-18T13:00:37.806Z,2.22
2018-09-18T13:03:06.312Z,2.42
2018-09-18T13:05:34.806Z,2.50
2018-09-18T13:08:03.307Z,2.40
2018-09-18T13:10:31.776Z,2.40
2018-09-18T13:13:00.452Z,2.55
2018-09-18T13:15:28.839Z,2.65
2018-09-18T13:17:57.391Z,2.58
2018-09-18T13:20:25.792Z,2.65
2018-09-18T13:22:54.527Z,2.67
2018-09-18T13:25:23.254Z,3.05
2018-09-18T13:27:51.678Z,2.35
2018-09-18T13:30:20.373Z,2.92
2018-09-18T13:32:49.147Z,2.50
2018-09-18T13:35:17.536Z,2.80
2018-09-18T13:37:46.243Z,2.58
2018-09-18T13:40:15.391Z,2.80
2018-09-18T13:42:44.132Z,2.58
2018-09-18T13:45:12.523Z,2.62
2018-09-18T13:47:42.184Z,2.12
2018-09-18T13:50:10.872Z,2.27
2018-09-18T13:52:39.923Z,2.52
2018-09-18T13:55:08.703Z,2.52
2018-09-18T13:57:37.225Z,2.20
2018-09-18T14:00:06.199Z,2.40
2018-09-18T14:02:35.397Z,2.50
2018-09-18T14:05:03.951Z,2.37
2018-09-18T14:07:32.409Z,2.52
2018-09-18T14:10:01.591Z,2.17
2018-09-18T14:12:29.977Z,2.30
2018-09-18T14:14:58.500Z,2.98
2018-09-18T14:17:27.194Z,2.50
2018-09-18T14:19:55.603Z,2.52
2018-09-18T14:22:24.564Z,2.92
2018-09-18T14:24:53.819Z,2.95
2018-09-18T14:27:22.205Z,2.60
2018-09-18T14:29:50.587Z,2.50
2018-09-18T14:32:20.021Z,2.65
2018-09-18T14:34:48.559Z,3.10
2018-09-18T14:37:17.048Z,2.60
2018-09-18T14:39:45.765Z,2.60
2018-09-18T14:42:14.152Z,2.58
2018-09-18T14:44:42.531Z,2.90
2018-09-18T14:47:11.402Z,2.77
2018-09-18T14:49:39.860Z,2.67
2018-09-18T14:52:09.807Z,2.58
2018-09-18T14:54:38.398Z,2.70
2018-09-18T14:57:06.799Z,2.92
2018-09-18T14:59:35.275Z,2.85
2018-09-18T15:02:04.076Z,3.05
2018-09-18T15:04:32.499Z,2.50
2018-09-18T15:07:01.032Z,2.72
2018-09-18T15:09:29.877Z,2.45
2018-09-18T15:11:58.978Z,2.75
2018-09-18T15:14:27.388Z,2.25
2018-09-18T15:16:56.947Z,2.92
2018-09-18T15:19:25.346Z,2.58
2018-09-18T15:21:53.752Z,2.42
2018-09-18T15:24:22.626Z,2.25
2018-09-18T15:26:51.130Z,3.08
2018-09-18T15:29:19.537Z,2.98
2018-09-18T15:31:48.037Z,2.75
2018-09-18T15:34:17.076Z,2.77
2018-09-18T15:36:45.474Z,2.40
2018-09-18T15:39:14.140Z,2.65
2018-09-18T15:41:42.958Z,2.83
2018-09-18T15:44:11.839Z,2.33
2018-09-18T15:46:40.882Z,3.00
2018-09-18T15:49:09.648Z,2.83
2018-09-18T15:51:38.270Z,2.90
2018-09-18T15:54:07.189Z,2.95
2018-09-18T15:56:35.629Z,2.80
2018-09-18T15:59:04.078Z,3.00
2018-09-18T16:01:33.111Z,2.85
2018-09-18T16:04:01.628Z,3.05
2018-09-18T16:06:30.166Z,2.58
2018-09-18T16:08:58.747Z,2.30
2018-09-18T16:11:27.122Z,2.80
2018-09-18T16:13:55.555Z,2.22
2018-09-18T16:16:24.059Z,2.40
2018-09-18T16:18:52.429Z,2.30
2018-09-18T16:21:20.814Z,2.60
2018-09-18T16:23:49.350Z,2.62
2018-09-18T16:26:17.740Z,2.37
2018-09-18T16:28:46.295Z,2.60
2018-09-18T16:31:15.021Z,2.77
2018-09-18T16:33:43.394Z,2.58
2018-09-18T16:36:11.774Z,2.47
2018-09-18T16:38:40.451Z,2.40
2018-09-18T16:41:08.898Z,2.05
2018-09-18T16:43:37.756Z,2.50
2018-09-18T16:46:07.244Z,2.77
2018-09-18T16:48:35.650Z,2.67
2018-09-18T16:51:04.246Z,2.65
2018-09-18T16:53:33.170Z,2.72
2018-09-18T16:56:01.564Z,2.50
2018-09-18T16:58:30.026Z,2.33
2018-09-18T17:00:59.221Z,2.70
2018-09-18T17:03:27.622Z,2.58
2018-09-18T17:05:56.320Z,2.85
2018-09-18T17:08:24.858Z,2.75
2018-09-18T17:10:53.426Z,2.60
2018-09-18T17:13:21.893Z,2.65
2018-09-18T17:15:50.726Z,2.58
2018-09-18T17:18:19.178Z,2.40
2018-09-18T17:20:47.826Z,2.55
2018-09-18T17:23:16.327Z,2.20
2018-09-18T17:25:45.271Z,2.90
2018-09-18T17:28:13.740Z,2.20
2018-09-18T17:30:43.449Z,2.50
2018-09-18T17:33:11.791Z,3.12
2018-09-18T17:35:40.245Z,2.80
2018-09-18T17:38:09.181Z,2.10
2018-09-18T17:40:37.584Z,2.45
2018-09-18T17:43:05.980Z,2.55
2018-09-18T17:45:34.651Z,2.50
2018-09-18T17:48:03.059Z,2.35
2018-09-18T17:50:31.447Z,2.92
2018-09-18T17:53:00.144Z,2.33
2018-09-18T17:55:28.543Z,2.58
2018-09-18T17:57:56.962Z,2.62
2018-09-18T18:00:25.794Z,2.50
2018-09-18T18:02:54.233Z,2.70
2018-09-18T18:05:22.656Z,2.90
2018-09-18T18:07:51.134Z,2.62
2018-09-18T18:10:19.540Z,2.58
2018-09-18T18:12:47.915Z,2.90
2018-09-18T18:15:16.410Z,2.45
2018-09-18T18:17:44.825Z,2.80
2018-09-18T18:20:13.287Z,3.10
2018-09-18T18:22:42.585Z,2.70
2018-09-18T18:25:11.528Z,2.70
2018-09-18T18:27:40.327Z,2.77
2018-09-18T18:30:08.824Z,2.60
2018-09-18T18:32:37.306Z,2.72
2018-09-18T18:35:05.867Z,2.92
2018-09-18T18:37:34.500Z,2.40
2018-09-18T18:40:02.902Z,2.35
2018-09-18T18:42:31.383Z,2.20
2018-09-18T18:45:00.107Z,2.42
2018-09-18T18:47:28.748Z,2.33
2018-09-18T18:49:57.186Z,2.90
2018-09-18T18:52:25.710Z,2.47
2018-09-18T18:54:54.108Z,2.52
2018-09-18T18:57:22.496Z,2.58
2018-09-18T18:59:50.998Z,2.60
2018-09-18T19:02:19.550Z,2.33
2018-09-18T19:04:47.933Z,2.40
2018-09-18T19:07:16.730Z,2.50
2018-09-18T19:09:45.149Z,2.50
2018-09-18T19:12:13.545Z,2.60
2018-09-18T19:14:42.927Z,2.10
2018-09-18T19:17:11.803Z,2.12
2018-09-18T19:19:40.225Z,2.37
2018-09-18T19:22:09.067Z,2.55
2018-09-18T19:24:37.451Z,2.45
2018-09-18T19:27:05.849Z,2.08
2018-09-18T19:29:34.351Z,2.70
2018-09-18T19:32:02.831Z,2.50
2018-09-18T19:34:31.330Z,2.40
2018-09-18T19:37:00.336Z,2.50
2018-09-18T19:39:28.710Z,2.90
2018-09-18T19:41:57.119Z,2.67
2018-09-18T19:44:25.607Z,2.45
2018-09-18T19:46:54.010Z,2.77
2018-09-18T19:49:28.870Z,2.87
2018-09-18T19:51:57.374Z,2.80
2018-09-18T19:54:25.723Z,2.40
2018-09-18T19:56:54.325Z,3.02
2018-09-18T19:59:22.847Z,2.80
2018-09-18T20:01:51.208Z,2.80
2018-09-18T20:04:19.739Z,2.70
2018-09-18T20:06:48.130Z,3.23
2018-09-18T20:09:16.907Z,2.83
2018-09-18T20:11:45.544Z,3.13
2018-09-18T20:14:13.938Z,2.73
2018-09-18T20:16:43.145Z,2.70
2018-09-18T20:19:11.654Z,2.83
2018-09-18T20:21:40.637Z,3.20
2018-09-18T20:24:09.027Z,2.83
2018-09-18T20:26:37.627Z,3.87
2018-09-18T20:29:06.151Z,2.80
2018-09-18T20:31:34.532Z,2.73
2018-09-18T20:34:03.378Z,3.00
2018-09-18T20:36:32.015Z,2.83
2018-09-18T20:39:00.491Z,2.80
2018-09-18T20:41:29.578Z,2.77
2018-09-18T20:44:04.687Z,3.10
2018-09-18T20:46:33.575Z,3.17
2018-09-18T20:49:01.978Z,3.40
2018-09-18T20:51:30.692Z,3.27
2018-09-18T20:53:59.228Z,3.47
2018-09-18T20:56:27.747Z,3.60
2018-09-18T20:58:56.220Z,4.10
2018-09-18T21:01:25.173Z,3.63
2018-09-18T21:03:53.620Z,3.20
2018-09-18T21:06:22.077Z,2.90
2018-09-18T21:08:50.641Z,2.97
2018-09-18T21:11:19.118Z,3.20
2018-09-18T21:13:47.557Z,3.30
2018-09-18T21:16:16.410Z,3.33
2018-09-18T21:18:44.867Z,3.20
2018-09-18T21:21:13.297Z,3.27
2018-09-18T21:23:41.945Z,2.80
2018-09-18T21:26:13.554Z,2.77
2018-09-18T21:28:43.556Z,3.00
2018-09-18T21:31:12.064Z,2.60
2018-09-18T21:33:41.121Z,2.60
2018-09-18T21:36:10.805Z,3.40
2018-09-18T21:38:40.225Z,2.80
2018-09-18T21:41:08.665Z,3.05
2018-09-18T21:43:37.515Z,2.90
2018-09-18T21:46:05.910Z,2.70
2018-09-18T21:48:34.361Z,2.60
2018-09-18T21:51:03.106Z,2.80
2018-09-18T21:53:31.698Z,3.20
2018-09-18T21:56:00.141Z,2.65
2018-09-18T21:58:28.685Z,2.95
2018-09-18T22:00:57.205Z,2.80
2018-09-18T22:03:25.799Z,3.47
2018-09-18T22:05:54.730Z,2.75
2018-09-18T22:08:23.681Z,3.27
2018-09-18T22:10:52.175Z,2.80
2018-09-18T22:13:20.739Z,2.87
2018-09-18T22:15:49.173Z,2.60
2018-09-18T22:18:17.616Z,2.60
2018-09-18T22:20:46.407Z,2.92
2018-09-18T22:23:14.829Z,2.50
2018-09-18T22:25:43.325Z,3.37
2018-09-18T22:28:12.782Z,2.80
2018-09-18T22:30:41.249Z,2.90
2018-09-18T22:33:09.675Z,2.85
2018-09-18T22:35:38.436Z,2.83
2018-09-18T22:38:07.173Z,3.15
2018-09-18T22:40:36.133Z,2.55
2018-09-18T22:43:04.933Z,2.62
2018-09-18T22:45:33.360Z,2.62
2018-09-18T22:48:02.081Z,2.72
2018-09-18T22:50:30.974Z,2.65
2018-09-18T22:53:00.079Z,2.92
2018-09-18T22:55:28.805Z,3.08
2018-09-18T22:57:57.617Z,3.02
2018-09-18T23:00:26.103Z,3.00
2018-09-18T23:02:55.206Z,3.08
2018-09-18T23:05:24.074Z,3.22
2018-09-18T23:07:52.505Z,3.62
2018-09-18T23:10:21.452Z,3.35
2018-09-18T23:12:50.337Z,2.30
2018-09-18T23:15:18.866Z,3.27
2018-09-18T23:17:47.314Z,3.40
2018-09-18T23:20:16.222Z,2.70
2018-09-18T23:22:44.701Z,3.40
2018-09-18T23:25:13.214Z,3.00
2018-09-18T23:27:42.571Z,3.47
2018-09-18T23:30:11.690Z,3.08
2018-09-18T23:32:40.115Z,3.00
2018-09-18T23:35:08.920Z,3.00
2018-09-18T23:37:37.369Z,3.12
2018-09-18T23:40:05.848Z,3.72
2018-09-18T23:42:35.122Z,3.25
2018-09-18T23:45:03.593Z,3.25
2018-09-18T23:47:32.029Z,3.02
2018-09-18T23:50:00.624Z,3.40
2018-09-18T23:52:29.106Z,3.50
2018-09-18T23:54:57.544Z,3.62
2018-09-18T23:57:26.423Z,3.70
2018-09-18T23:59:55.173Z,3.00
